createdAt,value
2019-03-22T00:00:41.855Z,25.87
2019-03-22T00:03:09.830Z,25.97
2019-03-22T00:05:37.744Z,27.90
2019-03-22T00:08:05.919Z,26.77
2019-03-22T00:10:33.856Z,26.70
2019-03-22T00:13:01.973Z,26.73
2019-03-22T00:15:30.226Z,26.93
2019-03-22T00:17:58.437Z,26.83
2019-03-22T00:20:26.308Z,27.97
2019-03-22T00:22:54.158Z,27.70
2019-03-22T00:25:22.008Z,27.83
2019-03-22T00:27:50.143Z,27.33
2019-03-22T00:30:18.064Z,27.97
2019-03-22T00:32:46.147Z,29.13
2019-03-22T00:35:14.354Z,27.47
2019-03-22T00:37:42.538Z,27.47
2019-03-22T00:40:10.785Z,27.77
2019-03-22T00:42:39.327Z,27.13
2019-03-22T00:45:07.374Z,27.80
2019-03-22T00:47:35.232Z,27.27
2019-03-22T00:50:03.991Z,27.83
2019-03-22T00:52:31.800Z,27.47
2019-03-22T00:54:59.650Z,27.37
2019-03-22T00:57:28.880Z,28.53
2019-03-22T00:59:56.866Z,27.13
2019-03-22T01:02:24.831Z,26.50
2019-03-22T01:04:52.777Z,27.97
2019-03-22T01:07:20.614Z,27.53
2019-03-22T01:09:48.554Z,25.67
2019-03-22T01:12:16.945Z,27.30
2019-03-22T01:14:44.936Z,25.77
2019-03-22T01:17:12.807Z,27.10
2019-03-22T01:19:40.789Z,27.43
2019-03-22T01:22:08.720Z,27.37
2019-03-22T01:24:36.899Z,26.97
2019-03-22T01:27:04.719Z,27.83
2019-03-22T01:29:32.657Z,28.53
2019-03-22T01:32:00.902Z,27.07
2019-03-22T01:34:29.061Z,28.20
2019-03-22T01:36:57.277Z,28.03
2019-03-22T01:39:25.319Z,28.50
2019-03-22T01:41:53.146Z,27.77
2019-03-22T01:44:21.088Z,27.37
2019-03-22T01:46:48.907Z,26.63
2019-03-22T01:49:16.772Z,29.23
2019-03-22T01:51:44.622Z,27.57
2019-03-22T01:54:12.569Z,28.97
2019-03-22T01:56:40.686Z,27.93
2019-03-22T01:59:08.889Z,29.37
2019-03-22T02:01:36.722Z,28.43
2019-03-22T02:04:04.901Z,28.70
2019-03-22T02:06:32.739Z,28.13
2019-03-22T02:09:00.948Z,29.83
2019-03-22T02:11:29.128Z,29.43
2019-03-22T02:13:56.967Z,29.27
2019-03-22T02:16:25.079Z,30.10
2019-03-22T02:18:53.207Z,29.50
2019-03-22T02:21:21.051Z,29.93
2019-03-22T02:23:48.808Z,28.57
2019-03-22T02:26:16.627Z,30.03
2019-03-22T02:28:44.579Z,29.30
2019-03-22T02:31:12.413Z,27.93
2019-03-22T02:33:40.604Z,29.87
2019-03-22T02:36:09.011Z,29.10
2019-03-22T02:38:37.536Z,29.30
2019-03-22T02:41:05.403Z,28.87
2019-03-22T02:43:33.898Z,27.03
2019-03-22T02:46:02.139Z,29.23
2019-03-22T02:48:30.362Z,28.57
2019-03-22T02:50:58.211Z,28.77
2019-03-22T02:53:26.386Z,29.23
2019-03-22T02:55:54.674Z,29.30
2019-03-22T02:58:22.657Z,28.33
2019-03-22T03:00:50.571Z,28.47
2019-03-22T03:03:18.491Z,29.13
2019-03-22T03:05:46.697Z,28.50
2019-03-22T03:08:15.113Z,30.37
2019-03-22T03:10:42.940Z,31.57
2019-03-22T03:13:10.888Z,33.57
2019-03-22T03:15:38.754Z,33.10
2019-03-22T03:18:06.688Z,33.37
2019-03-22T03:20:34.632Z,36.20
2019-03-22T03:23:02.787Z,35.53
2019-03-22T03:25:31.362Z,34.17
2019-03-22T03:27:59.301Z,36.50
2019-03-22T03:30:27.240Z,39.63
2019-03-22T03:32:55.475Z,39.50
2019-03-22T03:35:23.712Z,37.47
2019-03-22T03:37:51.641Z,37.03
2019-03-22T03:40:19.471Z,37.63
2019-03-22T03:42:47.720Z,39.43
2019-03-22T03:45:28.906Z,40.17
2019-03-22T03:47:57.341Z,37.37
2019-03-22T03:50:25.188Z,35.43
2019-03-22T03:52:53.039Z,37.27
2019-03-22T03:55:20.975Z,33.30
2019-03-22T03:57:49.487Z,35.13
2019-03-22T04:00:17.631Z,34.63
2019-03-22T04:02:45.469Z,36.17
2019-03-22T04:05:14.575Z,34.63
2019-03-22T04:07:42.727Z,37.80
2019-03-22T04:10:10.561Z,37.03
2019-03-22T04:12:38.402Z,35.07
2019-03-22T04:15:06.457Z,38.50
2019-03-22T04:17:34.744Z,36.37
2019-03-22T04:20:03.078Z,39.07
2019-03-22T04:22:30.891Z,37.10
2019-03-22T04:24:58.827Z,40.00
2019-03-22T04:27:26.655Z,39.67
2019-03-22T04:29:54.762Z,37.07
2019-03-22T04:32:22.696Z,36.83
2019-03-22T04:34:50.613Z,38.93
2019-03-22T04:37:18.415Z,43.33
2019-03-22T04:39:46.509Z,33.90
2019-03-22T04:42:15.163Z,36.87
2019-03-22T04:44:43.295Z,31.87
2019-03-22T04:47:14.283Z,35.77
2019-03-22T04:49:43.265Z,35.30
2019-03-22T04:52:11.696Z,35.77
2019-03-22T04:54:40.609Z,38.33
2019-03-22T04:57:11.630Z,35.27
2019-03-22T04:59:41.762Z,32.93
2019-03-22T05:02:10.000Z,34.27
2019-03-22T05:04:40.154Z,34.93
2019-03-22T05:07:08.447Z,34.63
2019-03-22T05:09:36.773Z,34.47
2019-03-22T05:12:06.604Z,36.10
2019-03-22T05:14:37.259Z,34.77
2019-03-22T05:17:06.981Z,36.77
2019-03-22T05:19:37.717Z,32.23
2019-03-22T05:22:08.654Z,38.50
2019-03-22T05:24:38.454Z,35.90
2019-03-22T05:27:07.756Z,34.03
2019-03-22T05:29:38.838Z,36.40
2019-03-22T05:32:08.294Z,32.80
2019-03-22T05:34:36.355Z,32.60
2019-03-22T05:37:04.429Z,35.27
2019-03-22T05:39:32.544Z,37.30
2019-03-22T05:42:00.752Z,33.37
2019-03-22T05:44:28.596Z,34.73
2019-03-22T05:46:56.471Z,34.70
2019-03-22T05:49:24.593Z,34.57
2019-03-22T05:51:52.409Z,33.73
2019-03-22T05:54:20.331Z,33.87
2019-03-22T05:56:48.960Z,36.53
2019-03-22T05:59:16.893Z,38.83
2019-03-22T06:01:45.433Z,38.53
2019-03-22T06:04:13.582Z,32.93
2019-03-22T06:06:41.670Z,34.27
2019-03-22T06:09:09.753Z,33.50
2019-03-22T06:11:38.258Z,35.17
2019-03-22T06:14:07.055Z,36.20
2019-03-22T06:16:35.253Z,35.00
2019-03-22T06:19:03.369Z,35.43
2019-03-22T06:21:31.353Z,35.90
2019-03-22T06:23:59.324Z,35.40
2019-03-22T06:26:27.257Z,36.37
2019-03-22T06:28:55.084Z,36.90
2019-03-22T06:31:26.317Z,36.50
2019-03-22T06:33:54.159Z,36.90
2019-03-22T06:36:24.133Z,35.63
2019-03-22T06:38:52.385Z,32.83
2019-03-22T06:41:20.498Z,33.00
2019-03-22T06:43:48.366Z,36.03
2019-03-22T06:46:16.337Z,36.73
2019-03-22T06:48:44.338Z,36.10
2019-03-22T06:51:12.464Z,32.43
2019-03-22T06:53:40.393Z,34.13
2019-03-22T06:56:08.276Z,33.90
2019-03-22T06:58:36.205Z,31.53
2019-03-22T07:01:04.303Z,33.10
2019-03-22T07:03:32.500Z,33.97
2019-03-22T07:06:00.633Z,32.13
2019-03-22T07:08:28.464Z,36.17
2019-03-22T07:10:56.368Z,35.13
2019-03-22T07:13:24.311Z,36.57
2019-03-22T07:15:52.562Z,36.80
2019-03-22T07:18:20.411Z,33.47
2019-03-22T07:20:48.317Z,33.27
2019-03-22T07:23:16.162Z,36.00
2019-03-22T07:25:44.281Z,34.83
2019-03-22T07:28:12.788Z,34.47
2019-03-22T07:30:40.973Z,36.07
2019-03-22T07:33:09.127Z,36.90
2019-03-22T07:35:37.308Z,36.20
2019-03-22T07:38:05.245Z,34.50
2019-03-22T07:40:33.722Z,36.70
2019-03-22T07:43:01.785Z,34.53
2019-03-22T07:45:29.913Z,34.07
2019-03-22T07:47:57.864Z,39.00
2019-03-22T07:50:25.979Z,39.83
2019-03-22T07:52:54.200Z,35.87
2019-03-22T07:55:22.240Z,38.37
2019-03-22T07:57:50.145Z,39.43
2019-03-22T08:00:29.888Z,36.27
2019-03-22T08:02:47.968Z,37.47
2019-03-22T08:05:15.801Z,37.80
2019-03-22T08:07:43.992Z,35.73
2019-03-22T08:10:12.128Z,35.63
2019-03-22T08:12:40.080Z,33.63
2019-03-22T08:15:08.640Z,35.80
2019-03-22T08:17:36.651Z,33.33
2019-03-22T08:20:05.928Z,33.03
2019-03-22T08:22:33.781Z,32.37
2019-03-22T08:25:01.630Z,32.57
2019-03-22T08:27:29.562Z,33.37
2019-03-22T08:29:57.519Z,33.13
2019-03-22T08:32:25.698Z,31.57
2019-03-22T08:34:53.571Z,34.87
2019-03-22T08:37:21.486Z,35.37
2019-03-22T08:39:49.428Z,33.03
2019-03-22T08:42:17.377Z,32.43
2019-03-22T08:44:45.797Z,32.80
2019-03-22T08:47:14.102Z,32.30
2019-03-22T08:49:42.428Z,33.53
2019-03-22T08:52:10.787Z,33.30
2019-03-22T08:54:38.729Z,33.40
2019-03-22T08:57:06.681Z,32.77
2019-03-22T08:59:34.602Z,33.10
2019-03-22T09:02:02.476Z,33.90
2019-03-22T09:04:30.367Z,31.67
2019-03-22T09:06:59.083Z,32.80
2019-03-22T09:09:27.130Z,35.57
2019-03-22T09:11:55.085Z,33.83
2019-03-22T09:14:23.068Z,34.60
2019-03-22T09:16:50.953Z,32.50
2019-03-22T09:19:18.842Z,30.77
2019-03-22T09:21:46.711Z,32.53
2019-03-22T09:24:14.622Z,31.77
2019-03-22T09:26:47.501Z,33.67
2019-03-22T09:29:12.825Z,33.40
2019-03-22T09:31:40.657Z,33.57
2019-03-22T09:34:08.513Z,35.40
2019-03-22T09:36:36.664Z,36.20
2019-03-22T09:39:07.070Z,32.33
2019-03-22T09:41:35.245Z,34.40
2019-03-22T09:44:03.623Z,33.17
2019-03-22T09:46:31.843Z,34.53
2019-03-22T09:48:59.760Z,33.37
2019-03-22T09:51:27.992Z,33.13
2019-03-22T09:53:55.816Z,32.23
2019-03-22T09:56:23.776Z,33.57
2019-03-22T09:58:52.005Z,31.00
2019-03-22T10:01:23.846Z,30.30
2019-03-22T10:03:50.216Z,30.07
2019-03-22T10:06:18.152Z,30.90
2019-03-22T10:08:46.148Z,29.83
2019-03-22T10:11:14.167Z,29.50
2019-03-22T10:13:42.345Z,29.70
2019-03-22T10:16:10.254Z,28.47
2019-03-22T10:18:38.575Z,29.87
2019-03-22T10:21:06.566Z,27.07
2019-03-22T10:23:34.712Z,25.13
2019-03-22T10:26:03.037Z,24.53
2019-03-22T10:28:30.892Z,23.97
2019-03-22T10:30:58.826Z,22.07
2019-03-22T10:33:26.815Z,24.97
2019-03-22T10:35:54.720Z,24.90
2019-03-22T10:38:30.790Z,23.87
2019-03-22T10:40:52.944Z,24.47
2019-03-22T10:43:21.152Z,24.18
2019-03-22T10:45:49.369Z,21.10
2019-03-22T10:48:17.615Z,22.05
2019-03-22T10:50:46.073Z,24.05
2019-03-22T10:53:14.320Z,25.40
2019-03-22T10:55:42.538Z,23.95
2019-03-22T10:58:20.777Z,23.18
2019-03-22T11:00:40.147Z,22.98
2019-03-22T11:03:08.375Z,22.07
2019-03-22T11:05:36.417Z,23.07
2019-03-22T11:08:04.628Z,22.00
2019-03-22T11:10:32.993Z,19.85
2019-03-22T11:13:00.876Z,20.30
2019-03-22T11:15:28.777Z,20.65
2019-03-22T11:17:56.903Z,18.70
2019-03-22T11:20:24.726Z,18.75
2019-03-22T11:22:52.587Z,18.30
2019-03-22T11:25:20.412Z,20.23
2019-03-22T11:27:48.528Z,19.37
2019-03-22T11:30:17.093Z,19.32
2019-03-22T11:32:45.021Z,18.62
2019-03-22T11:35:13.089Z,17.25
2019-03-22T11:37:41.023Z,18.07
2019-03-22T11:40:10.100Z,19.80
2019-03-22T11:42:38.170Z,20.72
2019-03-22T11:45:07.877Z,18.92
2019-03-22T11:47:36.090Z,17.42
2019-03-22T11:50:05.409Z,19.00
2019-03-22T11:52:34.018Z,17.07
2019-03-22T11:55:01.962Z,18.00
2019-03-22T11:57:30.183Z,18.42
2019-03-22T11:59:58.298Z,19.60
2019-03-22T12:02:26.255Z,17.30
2019-03-22T12:04:54.098Z,17.55
2019-03-22T12:07:22.223Z,18.65
2019-03-22T12:09:50.046Z,20.10
2019-03-22T12:12:18.046Z,18.87
2019-03-22T12:14:45.893Z,19.62
2019-03-22T12:17:13.823Z,18.65
2019-03-22T12:19:41.908Z,18.25
2019-03-22T12:22:09.781Z,20.08
2019-03-22T12:24:37.641Z,19.17
2019-03-22T12:27:05.602Z,18.30
2019-03-22T12:29:34.361Z,18.95
2019-03-22T12:32:02.300Z,16.17
2019-03-22T12:34:30.355Z,15.10
2019-03-22T12:36:58.215Z,17.20
2019-03-22T12:39:26.126Z,17.57
2019-03-22T12:41:53.965Z,17.60
2019-03-22T12:44:21.798Z,15.48
2019-03-22T12:46:49.656Z,14.93
2019-03-22T12:49:17.587Z,14.28
2019-03-22T12:51:45.436Z,14.30
2019-03-22T12:54:13.275Z,14.75
2019-03-22T12:56:41.214Z,13.95
2019-03-22T12:59:09.173Z,13.70
2019-03-22T13:01:37.084Z,13.40
2019-03-22T13:04:04.925Z,13.20
2019-03-22T13:06:32.744Z,12.78
2019-03-22T13:09:00.581Z,12.90
2019-03-22T13:11:29.080Z,13.35
2019-03-22T13:13:56.918Z,14.75
2019-03-22T13:16:24.730Z,13.75
2019-03-22T13:18:52.585Z,14.45
2019-03-22T13:21:20.403Z,13.48
2019-03-22T13:23:48.521Z,12.75
2019-03-22T13:26:16.469Z,13.95
2019-03-22T13:28:44.326Z,13.60
2019-03-22T13:31:12.511Z,14.50
2019-03-22T13:33:40.326Z,13.25
2019-03-22T13:36:08.269Z,15.08
2019-03-22T13:38:36.178Z,14.50
2019-03-22T13:41:04.060Z,15.20
2019-03-22T13:43:32.002Z,15.05
2019-03-22T13:45:59.821Z,15.32
2019-03-22T13:48:27.747Z,15.30
2019-03-22T13:50:55.928Z,14.58
2019-03-22T13:53:24.030Z,14.13
2019-03-22T13:55:51.924Z,14.33
2019-03-22T13:58:19.754Z,15.05
2019-03-22T14:00:47.959Z,16.30
2019-03-22T14:03:15.890Z,15.55
2019-03-22T14:05:43.801Z,14.80
2019-03-22T14:08:11.934Z,15.00
2019-03-22T14:10:40.090Z,15.18
2019-03-22T14:13:07.902Z,16.70
2019-03-22T14:15:36.277Z,15.60
2019-03-22T14:18:04.969Z,16.17
2019-03-22T14:20:33.112Z,15.93
2019-03-22T14:23:01.312Z,15.15
2019-03-22T14:25:29.115Z,14.83
2019-03-22T14:27:56.968Z,15.30
2019-03-22T14:30:25.110Z,14.70
2019-03-22T14:32:53.343Z,15.03
2019-03-22T14:35:21.187Z,14.63
2019-03-22T14:37:49.005Z,15.03
2019-03-22T14:40:17.513Z,14.15
2019-03-22T14:42:45.338Z,14.25
2019-03-22T14:45:13.767Z,13.70
2019-03-22T14:47:42.110Z,14.45
2019-03-22T14:50:10.354Z,14.20
2019-03-22T14:52:38.292Z,13.68
2019-03-22T14:55:06.441Z,13.75
2019-03-22T14:57:34.372Z,13.10
2019-03-22T15:00:02.434Z,14.75
2019-03-22T15:02:30.277Z,14.28
2019-03-22T15:04:58.092Z,14.13
2019-03-22T15:07:26.289Z,14.78
2019-03-22T15:09:54.435Z,15.40
2019-03-22T15:12:22.627Z,15.05
2019-03-22T15:15:04.012Z,14.83
2019-03-22T15:17:40.214Z,14.33
2019-03-22T15:20:39.941Z,13.13
2019-03-22T15:23:25.808Z,13.38
2019-03-22T15:26:12.085Z,12.05
2019-03-22T15:28:58.310Z,13.40
2019-03-22T15:32:03.462Z,13.15
2019-03-22T15:34:44.737Z,12.95
2019-03-22T15:40:03.320Z,11.80
2019-03-22T15:42:31.142Z,13.78
2019-03-22T15:44:59.579Z,13.15
2019-03-22T15:47:27.549Z,11.95
2019-03-22T15:49:55.731Z,11.50
2019-03-22T15:52:23.658Z,12.20
2019-03-22T15:54:51.577Z,12.50
2019-03-22T15:57:19.438Z,10.63
2019-03-22T15:59:47.298Z,13.55
2019-03-22T16:02:15.554Z,12.37
2019-03-22T16:04:43.498Z,15.28
2019-03-22T16:07:11.340Z,17.17
2019-03-22T16:09:39.331Z,14.83
2019-03-22T16:12:07.496Z,15.70
2019-03-22T16:14:35.318Z,16.55
2019-03-22T16:17:03.185Z,16.23
2019-03-22T16:19:31.350Z,16.50
2019-03-22T16:21:59.268Z,18.12
2019-03-22T16:24:27.104Z,18.25
2019-03-22T16:26:55.756Z,18.82
2019-03-22T16:29:23.604Z,20.52
2019-03-22T16:31:51.455Z,21.60
2019-03-22T16:34:19.366Z,22.42
2019-03-22T16:36:47.217Z,21.57
2019-03-22T16:39:15.157Z,22.00
2019-03-22T16:41:43.319Z,23.30
2019-03-22T16:44:11.206Z,22.90
2019-03-22T16:46:39.129Z,23.50
2019-03-22T16:49:07.515Z,22.80
2019-03-22T16:51:35.755Z,22.40
2019-03-22T16:54:04.180Z,22.05
2019-03-22T16:56:32.117Z,22.67
2019-03-22T16:59:00.058Z,22.13
2019-03-22T17:01:27.874Z,22.40
2019-03-22T17:04:04.106Z,21.77
2019-03-22T17:06:26.020Z,21.27
2019-03-22T17:08:53.980Z,21.43
2019-03-22T17:11:21.815Z,20.53
2019-03-22T17:13:49.632Z,20.87
2019-03-22T17:16:17.460Z,21.27
2019-03-22T17:18:45.691Z,20.67
2019-03-22T17:21:13.664Z,20.80
2019-03-22T17:23:41.561Z,20.67
2019-03-22T17:26:09.684Z,20.57
2019-03-22T17:28:39.864Z,18.90
2019-03-22T17:31:07.711Z,20.57
2019-03-22T17:33:35.524Z,19.13
2019-03-22T17:36:03.755Z,19.30
2019-03-22T17:38:32.251Z,21.20
2019-03-22T17:41:00.406Z,21.00
2019-03-22T17:43:28.263Z,20.40
2019-03-22T17:45:56.199Z,19.27
2019-03-22T17:48:24.137Z,20.37
2019-03-22T17:50:51.986Z,21.93
2019-03-22T17:53:19.997Z,22.47
2019-03-22T17:55:47.965Z,27.00
2019-03-22T17:58:15.843Z,27.67
2019-03-22T18:00:44.205Z,29.03
2019-03-22T18:03:12.208Z,30.80
2019-03-22T18:05:40.412Z,33.27
2019-03-22T18:08:08.532Z,33.07
2019-03-22T18:10:36.353Z,33.67
2019-03-22T18:13:04.777Z,33.80
2019-03-22T18:15:33.035Z,36.27
2019-03-22T18:18:00.940Z,36.60
2019-03-22T18:20:28.785Z,38.20
2019-03-22T18:22:59.502Z,39.03
2019-03-22T18:25:27.778Z,38.33
2019-03-22T18:27:55.785Z,39.17
2019-03-22T18:30:24.186Z,39.90
2019-03-22T18:32:52.703Z,39.63
2019-03-22T18:35:20.946Z,39.80
2019-03-22T18:37:48.859Z,41.67
2019-03-22T18:40:17.041Z,39.63
2019-03-22T18:42:45.407Z,43.27
2019-03-22T18:45:13.851Z,40.50
2019-03-22T18:47:42.065Z,41.27
2019-03-22T18:50:10.376Z,42.13
2019-03-22T18:52:38.370Z,40.87
2019-03-22T18:55:06.581Z,41.80
2019-03-22T18:57:34.444Z,40.83
2019-03-22T19:00:02.655Z,41.57
2019-03-22T19:02:30.857Z,42.07
2019-03-22T19:04:58.783Z,43.13
2019-03-22T19:07:27.970Z,45.57
2019-03-22T19:09:55.898Z,45.33
2019-03-22T19:12:24.126Z,45.00
2019-03-22T19:14:52.300Z,43.40
2019-03-22T19:17:20.154Z,44.27
2019-03-22T19:19:48.005Z,44.17
2019-03-22T19:22:16.127Z,46.07
2019-03-22T19:24:43.966Z,47.27
2019-03-22T19:27:12.123Z,48.20
2019-03-22T19:29:40.058Z,50.77
2019-03-22T19:32:13.216Z,52.77
2019-03-22T19:34:38.024Z,51.70
2019-03-22T19:37:05.925Z,53.70
2019-03-22T19:39:34.065Z,53.87
2019-03-22T19:42:01.934Z,54.97
2019-03-22T19:44:29.731Z,52.83
2019-03-22T19:46:57.473Z,57.43
2019-03-22T19:49:25.337Z,54.47
2019-03-22T19:51:53.274Z,53.23
2019-03-22T19:54:21.100Z,53.80
2019-03-22T19:56:49.260Z,55.27
2019-03-22T19:59:17.423Z,55.53
2019-03-22T20:01:45.343Z,53.53
2019-03-22T20:04:13.701Z,53.27
2019-03-22T20:06:41.556Z,54.53
2019-03-22T20:09:10.195Z,56.33
2019-03-22T20:11:38.245Z,56.20
2019-03-22T20:14:06.187Z,56.53
2019-03-22T20:16:34.020Z,56.70
2019-03-22T20:19:01.863Z,56.23
2019-03-22T20:21:30.092Z,57.13
2019-03-22T20:23:58.751Z,57.57
2019-03-22T20:26:26.601Z,56.87
2019-03-22T20:28:54.538Z,59.67
2019-03-22T20:31:22.375Z,60.20
2019-03-22T20:33:50.325Z,60.40
2019-03-22T20:36:21.062Z,61.70
2019-03-22T20:38:48.902Z,56.80
2019-03-22T20:41:16.856Z,58.17
2019-03-22T20:43:44.781Z,57.67
2019-03-22T20:46:12.622Z,57.23
2019-03-22T20:48:40.573Z,54.53
2019-03-22T20:51:08.521Z,53.13
2019-03-22T20:53:36.524Z,59.90
2019-03-22T20:56:04.387Z,55.60
2019-03-22T20:58:32.485Z,57.60
2019-03-22T21:01:00.630Z,58.20
2019-03-22T21:03:28.917Z,55.40
2019-03-22T21:05:57.042Z,55.57
2019-03-22T21:08:24.969Z,54.93
2019-03-22T21:10:53.192Z,57.50
2019-03-22T21:13:21.026Z,56.03
2019-03-22T21:15:48.940Z,54.73
2019-03-22T21:18:19.799Z,51.70
2019-03-22T21:20:47.726Z,56.07
2019-03-22T21:23:15.756Z,52.53
2019-03-22T21:25:43.497Z,49.13
2019-03-22T21:28:11.646Z,52.03
2019-03-22T21:30:39.609Z,50.07
2019-03-22T21:33:07.541Z,48.30
2019-03-22T21:35:37.477Z,48.77
2019-03-22T21:38:10.925Z,49.30
2019-03-22T21:40:35.019Z,49.37
2019-03-22T21:43:04.084Z,49.43
2019-03-22T21:45:31.944Z,50.30
2019-03-22T21:47:59.908Z,51.47
2019-03-22T21:50:28.024Z,52.33
2019-03-22T21:52:55.943Z,51.83
2019-03-22T21:55:23.895Z,52.93
2019-03-22T21:57:52.123Z,51.77
2019-03-22T22:00:20.338Z,49.20
2019-03-22T22:02:48.284Z,49.60
2019-03-22T22:05:16.200Z,50.50
2019-03-22T22:07:44.144Z,50.93
2019-03-22T22:10:12.372Z,50.27
2019-03-22T22:12:40.517Z,48.60
2019-03-22T22:15:13.985Z,50.73
2019-03-22T22:17:42.251Z,49.93
2019-03-22T22:20:11.030Z,51.20
2019-03-22T22:22:41.644Z,49.90
2019-03-22T22:25:09.541Z,47.23
2019-03-22T22:27:37.756Z,47.13
2019-03-22T22:30:06.429Z,50.17
2019-03-22T22:32:34.336Z,50.93
2019-03-22T22:35:02.494Z,49.70
2019-03-22T22:37:33.637Z,48.17
2019-03-22T22:40:01.470Z,48.87
2019-03-22T22:42:29.747Z,50.30
2019-03-22T22:44:57.971Z,47.93
2019-03-22T22:47:27.238Z,49.27
2019-03-22T22:49:55.925Z,50.60
2019-03-22T22:52:23.858Z,47.73
2019-03-22T22:54:52.124Z,46.97
2019-03-22T22:57:20.075Z,47.40
2019-03-22T22:59:48.215Z,46.83
2019-03-22T23:02:16.409Z,49.33
2019-03-22T23:04:44.261Z,48.03
2019-03-22T23:07:12.095Z,45.40
2019-03-22T23:09:39.941Z,45.27
2019-03-22T23:12:07.803Z,44.80
2019-03-22T23:14:35.676Z,45.40
2019-03-22T23:17:03.643Z,43.93
2019-03-22T23:19:31.484Z,44.67
2019-03-22T23:21:59.575Z,46.10
2019-03-22T23:24:27.403Z,44.50
2019-03-22T23:26:55.498Z,44.57
2019-03-22T23:29:23.353Z,43.03
2019-03-22T23:31:51.287Z,44.13
2019-03-22T23:34:19.094Z,42.07
2019-03-22T23:36:47.269Z,41.27
2019-03-22T23:39:15.177Z,41.57
2019-03-22T23:41:43.021Z,40.90
2019-03-22T23:44:11.177Z,39.40
2019-03-22T23:46:39.057Z,41.00
2019-03-22T23:49:06.957Z,39.57
2019-03-22T23:51:34.874Z,38.03
2019-03-22T23:54:03.082Z,40.20
2019-03-22T23:56:31.495Z,39.23
2019-03-22T23:58:59.426Z,38.90
